Time;durP1;ratioP1;P1;durP2;ratioP2;P2;SDS_P1;SDS_P2;PMS_P1;PMS_P2;Temp;Humidity;BMP_temperature;BMP_pressure;BME280_temperature;BME280_humidity;BME280_pressure;Samples;Min_cycle;Max_cycle;Signal;HPM_P1;HPM_P2
2024/01/04 00:01:32;;;;;;;;;;;;;;;10.06;68.10;98914.19;3947264;30;20016;-61
2024/01/04 00:03:36;;;;;;;;;;;;;;;10.00;67.72;98927.19;3942897;30;19930;-61
2024/01/04 00:05:39;;;;;;;;;;;;;;;10.03;68.22;98932.41;3945759;30;19933;-60
2024/01/04 00:07:41;;;;;;;;;;;;;;;10.05;67.63;98925.44;3947779;30;20008;-59
2024/01/04 00:09:44;;;;;;;;;;;;;;;10.09;67.16;98928.84;3933283;30;19989;-59
2024/01/04 00:11:47;;;;;;;;;;;;;;;10.05;66.83;98933.22;3958383;30;19929;-59
2024/01/04 00:13:50;;;;;;;;;;;;;;;10.00;67.68;98924.59;3947133;30;20119;-59
2024/01/04 00:15:52;;;;;;;;;;;;;;;10.01;67.67;98944.50;3946022;30;19925;-58
2024/01/04 00:17:55;;;;;;;;;;;;;;;10.10;67.47;98940.97;3946632;30;19932;-59
2024/01/04 00:19:59;;;;;;;;;;;;;;;10.08;67.09;98935.78;3947064;30;20403;-58
2024/01/04 00:22:01;;;;;;;;;;;;;;;10.09;67.21;98932.34;3946279;30;20407;-59
2024/01/04 00:24:03;;;;;;;;;;;;;;;10.07;67.18;98941.84;3947744;30;19941;-59
2024/01/04 00:26:05;;;;;;;;;;;;;;;10.01;67.13;98939.31;3946554;30;19930;-60
2024/01/04 00:28:08;;;;;;;;;;;;;;;10.03;67.21;98929.81;3948753;30;19925;-58
2024/01/04 00:30:11;;;;;;;;;;;;;;;10.26;66.34;98936.50;3944405;30;19972;-59
2024/01/04 00:32:14;;;;;;;;;;;;;;;10.13;67.16;98948.72;3956431;30;19990;-59
2024/01/04 00:34:17;;;;;;;;;;;;;;;10.13;67.41;98944.44;3960804;30;19925;-58
2024/01/04 00:36:20;;;;;;;;;;;;;;;10.16;67.54;98940.91;3959955;30;20408;-60
2024/01/04 00:38:23;;;;;;;;;;;;;;;10.09;67.78;98947.03;3944829;30;19929;-59
2024/01/04 00:40:25;;;;;;;;;;;;;;;10.13;67.20;98941.81;3956754;30;20016;-59
2024/01/04 00:42:28;;;;;;;;;;;;;;;10.18;67.37;98946.97;3959561;30;19929;-60
2024/01/04 00:44:31;;;;;;;;;;;;;;;10.07;67.30;98948.78;3945030;30;20351;-57
2024/01/04 00:46:34;;;;;;;;;;;;;;;10.05;67.33;98947.97;3959895;30;20495;-59
2024/01/04 00:48:36;;;;;;;;;;;;;;;10.04;67.23;98959.22;3944089;30;19926;-59
2024/01/04 00:50:40;;;;;;;;;;;;;;;10.09;67.08;98960.91;3943435;30;20042;-59
2024/01/04 00:52:44;;;;;;;;;;;;;;;10.00;67.54;98955.75;3944631;30;20300;-59
2024/01/04 00:54:51;;;;;;;;;;;;;;;9.99;68.05;98959.25;3960777;30;19929;-58
2024/01/04 00:56:53;;;;;;;;;;;;;;;9.95;67.65;98961.00;3943235;30;20586;-58
2024/01/04 00:58:55;;;;;;;;;;;;;;;9.94;68.33;98963.59;3957907;30;19975;-57
2024/01/04 01:00:58;;;;;;;;;;;;;;;9.91;67.90;98966.22;3944146;30;19932;-59
2024/01/04 01:03:00;;;;;;;;;;;;;;;9.92;68.15;98975.75;3959938;30;20320;-59
2024/01/04 01:05:03;;;;;;;;;;;;;;;9.94;68.03;98979.19;3951706;30;19933;-57
2024/01/04 01:07:05;;;;;;;;;;;;;;;9.90;68.77;98982.66;3946124;30;20353;-56
2024/01/04 01:09:09;;;;;;;;;;;;;;;9.91;68.46;98979.19;3958934;30;19932;-60
2024/01/04 01:11:12;;;;;;;;;;;;;;;10.00;68.46;98967.88;3960102;30;19959;-59
2024/01/04 01:13:20;;;;;;;;;;;;;;;10.00;68.37;98978.28;3945207;30;19929;-59
2024/01/04 01:15:22;;;;;;;;;;;;;;;9.97;67.90;98984.34;3957000;30;19998;-59
2024/01/04 01:17:24;;;;;;;;;;;;;;;9.96;68.40;98991.28;3956939;30;19964;-60
2024/01/04 01:19:27;;;;;;;;;;;;;;;9.99;67.84;98982.63;3957995;30;19968;-59
2024/01/04 01:21:30;;;;;;;;;;;;;;;9.94;68.71;98994.75;3929947;30;20302;-57
2024/01/04 01:23:32;;;;;;;;;;;;;;;9.92;68.42;98991.31;3945014;30;19926;-59
2024/01/04 01:25:36;;;;;;;;;;;;;;;9.85;68.59;98994.81;3958788;30;19929;-60
2024/01/04 01:27:39;;;;;;;;;;;;;;;9.95;69.17;98992.16;3944579;30;19926;-60
2024/01/04 01:29:41;;;;;;;;;;;;;;;9.95;69.22;99006.88;3952136;30;20408;-59
2024/01/04 01:31:43;;;;;;;;;;;;;;;9.92;69.55;99001.69;3959556;30;19925;-58
2024/01/04 01:33:48;;;;;;;;;;;;;;;9.90;68.94;99001.72;3939257;30;19926;-59
2024/01/04 01:35:51;;;;;;;;;;;;;;;9.91;68.50;99010.34;3958493;30;19932;-56
2024/01/04 01:37:54;;;;;;;;;;;;;;;9.85;69.07;99016.44;3945605;30;19926;-59
2024/01/04 01:39:56;;;;;;;;;;;;;;;9.84;69.17;99016.44;3959382;30;19926;-59
2024/01/04 01:41:59;;;;;;;;;;;;;;;9.93;69.08;99019.00;3943176;30;19926;-56
2024/01/04 01:44:02;;;;;;;;;;;;;;;10.04;69.38;99012.00;3962602;30;19959;-59
2024/01/04 01:46:05;;;;;;;;;;;;;;;9.98;68.56;99016.38;3949181;30;19930;-58
2024/01/04 01:48:08;;;;;;;;;;;;;;;9.93;68.41;99013.81;3947339;30;19934;-59
2024/01/04 01:50:10;;;;;;;;;;;;;;;9.91;68.98;99024.19;3960381;30;20373;-60
2024/01/04 01:52:13;;;;;;;;;;;;;;;10.00;69.38;99025.00;3951311;30;20427;-59
2024/01/04 01:54:16;;;;;;;;;;;;;;;9.99;68.24;99025.88;3962449;30;20020;-56
2024/01/04 01:56:19;;;;;;;;;;;;;;;9.96;68.50;99026.78;3961454;30;19948;-57
2024/01/04 01:58:23;;;;;;;;;;;;;;;10.02;68.50;99026.72;3957596;30;19929;-59
2024/01/04 02:00:25;;;;;;;;;;;;;;;10.03;68.67;99031.06;3948750;30;19934;-59
2024/01/04 02:02:27;;;;;;;;;;;;;;;10.00;68.50;99025.84;3962315;29;19976;-59
2024/01/04 02:04:30;;;;;;;;;;;;;;;10.06;68.30;99036.22;3949331;30;19957;-60
2024/01/04 02:06:32;;;;;;;;;;;;;;;10.02;67.86;99049.25;3959765;30;19925;-58
2024/01/04 02:08:35;;;;;;;;;;;;;;;10.07;68.21;99039.66;3961781;30;19975;-58
2024/01/04 02:10:37;;;;;;;;;;;;;;;9.99;67.50;99037.13;3961550;30;20016;-60
2024/01/04 02:12:40;;;;;;;;;;;;;;;10.03;67.56;99044.03;3962115;30;19926;-58
2024/01/04 02:14:44;;;;;;;;;;;;;;;10.03;68.12;99062.22;3948402;30;19937;-59
2024/01/04 02:16:46;;;;;;;;;;;;;;;10.00;67.26;99071.72;3960563;30;19964;-60
2024/01/04 02:18:49;;;;;;;;;;;;;;;10.05;67.63;99065.66;3961999;30;20028;-60
2024/01/04 02:20:52;;;;;;;;;;;;;;;10.14;67.11;99070.78;3960691;30;20030;-59
2024/01/04 02:22:56;;;;;;;;;;;;;;;10.17;66.21;99067.31;3947921;30;19926;-59
2024/01/04 02:24:59;;;;;;;;;;;;;;;10.20;66.52;99079.41;3960915;29;20024;-58
2024/01/04 02:27:01;;;;;;;;;;;;;;;10.21;66.45;99073.34;3947543;30;20025;-59
2024/01/04 02:29:04;;;;;;;;;;;;;;;10.18;66.89;99088.94;3962630;30;20485;-59
2024/01/04 02:31:06;;;;;;;;;;;;;;;10.13;67.01;99084.66;3948811;30;20021;-59
2024/01/04 02:33:09;;;;;;;;;;;;;;;10.13;66.85;99096.75;3948972;30;19998;-59
2024/01/04 02:35:11;;;;;;;;;;;;;;;10.14;66.84;99099.34;3961628;30;20703;-59
2024/01/04 02:37:14;;;;;;;;;;;;;;;10.12;66.22;99095.91;3962257;30;20004;-57
2024/01/04 02:39:18;;;;;;;;;;;;;;;10.11;66.36;99120.13;3962508;30;20025;-59
2024/01/04 02:41:20;;;;;;;;;;;;;;;10.09;67.22;99121.88;3948718;30;20270;-60
2024/01/04 02:43:23;;;;;;;;;;;;;;;10.08;67.53;99112.38;3947563;30;20309;-59
2024/01/04 02:45:26;;;;;;;;;;;;;;;10.11;66.89;99116.69;3947942;30;20020;-60
2024/01/04 02:47:27;;;;;;;;;;;;;;;10.13;67.16;99114.94;3962242;30;19926;-59
2024/01/04 02:49:30;;;;;;;;;;;;;;;10.14;67.23;99117.50;3948653;30;19933;-59
2024/01/04 02:51:33;;;;;;;;;;;;;;;10.13;66.44;99121.00;3948166;30;19963;-55
2024/01/04 02:53:36;;;;;;;;;;;;;;;10.08;66.68;99114.09;3948474;30;19930;-56
2024/01/04 02:55:41;;;;;;;;;;;;;;;10.07;66.37;99128.81;3948608;30;20008;-55
2024/01/04 02:57:44;;;;;;;;;;;;;;;10.06;66.11;99124.50;3940960;30;19926;-60
2024/01/04 02:59:46;;;;;;;;;;;;;;;10.04;66.62;99108.06;3940336;30;19969;-60
2024/01/04 03:01:49;;;;;;;;;;;;;;;10.09;66.55;99134.88;3948412;30;19932;-56
2024/01/04 03:03:55;;;;;;;;;;;;;;;10.03;65.96;99131.44;3948485;30;19975;-56
2024/01/04 03:05:57;;;;;;;;;;;;;;;9.96;66.84;99131.47;3946430;30;19972;-58
2024/01/04 03:08:00;;;;;;;;;;;;;;;9.97;66.67;99134.91;3948100;29;19952;-59
2024/01/04 03:10:03;;;;;;;;;;;;;;;10.00;67.25;99144.44;3948453;30;19926;-59
2024/01/04 03:12:07;;;;;;;;;;;;;;;9.95;66.74;99152.25;3948354;30;19925;-59
2024/01/04 03:14:10;;;;;;;;;;;;;;;9.87;67.12;99154.88;3948352;30;20304;-59
2024/01/04 03:16:13;;;;;;;;;;;;;;;9.87;67.49;99157.47;3947636;30;20012;-60
2024/01/04 03:18:15;;;;;;;;;;;;;;;9.81;68.05;99152.28;3947827;30;20068;-57
2024/01/04 03:20:18;;;;;;;;;;;;;;;9.90;68.13;99147.09;3961050;30;20028;-59
2024/01/04 03:22:20;;;;;;;;;;;;;;;9.99;68.15;99143.59;3946357;30;19930;-58
2024/01/04 03:24:23;;;;;;;;;;;;;;;10.06;68.23;99152.19;3945992;30;19932;-57
2024/01/04 03:26:24;;;;;;;;;;;;;;;10.13;67.60;99153.88;3946720;30;19953;-61
2024/01/04 03:28:29;;;;;;;;;;;;;;;10.08;67.75;99150.47;3947893;30;20021;-61
2024/01/04 03:30:31;;;;;;;;;;;;;;;10.00;68.45;99155.66;3947370;30;19948;-59
2024/01/04 03:32:33;;;;;;;;;;;;;;;10.00;68.70;99154.81;3961786;30;19929;-57
2024/01/04 03:34:36;;;;;;;;;;;;;;;10.06;68.51;99155.66;3946608;30;19925;-60
2024/01/04 03:36:39;;;;;;;;;;;;;;;10.04;67.62;99149.59;3945781;30;19925;-59
2024/01/04 03:38:42;;;;;;;;;;;;;;;10.07;68.31;99148.72;3947675;30;20299;-60
2024/01/04 03:40:45;;;;;;;;;;;;;;;10.04;67.78;99164.31;3940857;30;20012;-60
2024/01/04 03:42:48;;;;;;;;;;;;;;;9.96;68.03;99173.00;3961653;30;19925;-59
2024/01/04 03:44:52;;;;;;;;;;;;;;;10.02;68.30;99190.28;3947265;30;19925;-60
2024/01/04 03:46:55;;;;;;;;;;;;;;;10.07;67.67;99177.28;3947617;30;19929;-59
2024/01/04 03:48:57;;;;;;;;;;;;;;;10.17;67.73;99158.19;3947829;30;20024;-60
2024/01/04 03:51:00;;;;;;;;;;;;;;;10.09;67.88;99179.00;3947043;30;19930;-59
2024/01/04 03:53:03;;;;;;;;;;;;;;;10.04;68.18;99167.78;3947721;30;19925;-60
2024/01/04 03:55:06;;;;;;;;;;;;;;;10.04;68.28;99167.78;3947776;30;19926;-61
2024/01/04 03:57:09;;;;;;;;;;;;;;;10.05;67.33;99174.69;3947441;30;20411;-60
2024/01/04 03:59:12;;;;;;;;;;;;;;;10.00;67.90;99179.03;3947122;30;20288;-59
2024/01/04 04:01:16;;;;;;;;;;;;;;;9.93;68.00;99178.22;3947578;30;19926;-59
2024/01/04 04:03:19;;;;;;;;;;;;;;;9.85;68.73;99190.34;3947608;30;19936;-60
2024/01/04 04:05:22;;;;;;;;;;;;;;;9.87;68.52;99213.69;3946742;30;19925;-60
2024/01/04 04:07:25;;;;;;;;;;;;;;;9.91;68.49;99198.09;3959268;30;19925;-57
2024/01/04 04:09:27;;;;;;;;;;;;;;;10.02;68.33;99205.88;3947563;30;19926;-60
2024/01/04 04:11:30;;;;;;;;;;;;;;;10.05;68.59;99198.06;3947505;30;20002;-59
2024/01/04 04:13:33;;;;;;;;;;;;;;;10.04;68.33;99201.53;3947498;30;19947;-59
2024/01/04 04:15:36;;;;;;;;;;;;;;;10.11;68.20;99200.63;3947379;30;19991;-61
2024/01/04 04:17:39;;;;;;;;;;;;;;;9.96;67.63;99206.75;3946485;30;20391;-58
2024/01/04 04:19:42;;;;;;;;;;;;;;;9.90;68.28;99208.50;3947414;29;19925;-60
2024/01/04 04:21:45;;;;;;;;;;;;;;;9.91;68.00;99226.66;3939367;30;19964;-59
2024/01/04 04:23:49;;;;;;;;;;;;;;;9.93;68.39;99217.16;3946070;30;20024;-59
2024/01/04 04:25:54;;;;;;;;;;;;;;;10.23;67.96;99211.84;3947410;30;19925;-60
2024/01/04 04:27:57;;;;;;;;;;;;;;;10.16;67.72;99218.78;3946510;30;20012;-60
2024/01/04 04:29:59;;;;;;;;;;;;;;;10.14;67.63;99205.81;3947233;30;19936;-59
2024/01/04 04:32:02;;;;;;;;;;;;;;;10.28;68.07;99205.75;3947180;30;19944;-61
2024/01/04 04:34:06;;;;;;;;;;;;;;;10.31;67.66;99220.47;3947234;30;19934;-58
2024/01/04 04:36:10;;;;;;;;;;;;;;;10.25;67.89;99223.06;3946275;30;19933;-60
2024/01/04 04:38:12;;;;;;;;;;;;;;;10.04;67.96;99237.03;3941762;30;19930;-60
2024/01/04 04:40:15;;;;;;;;;;;;;;;10.05;68.48;99237.03;3942106;30;19932;-58
2024/01/04 04:42:17;;;;;;;;;;;;;;;10.08;67.87;99239.59;3945234;30;20020;-59
2024/01/04 04:44:20;;;;;;;;;;;;;;;10.09;67.81;99246.53;3946267;30;20304;-61
2024/01/04 04:46:22;;;;;;;;;;;;;;;10.03;68.59;99253.47;3946281;30;19964;-60
2024/01/04 04:48:25;;;;;;;;;;;;;;;9.95;68.85;99254.34;3959439;30;19948;-58
2024/01/04 04:50:30;;;;;;;;;;;;;;;10.02;68.75;99255.22;3945213;30;19926;-61
2024/01/04 04:52:32;;;;;;;;;;;;;;;10.08;68.86;99268.16;3955967;29;20502;-60
2024/01/04 04:54:35;;;;;;;;;;;;;;;10.08;68.77;99270.75;3945109;30;19930;-60
2024/01/04 04:56:38;;;;;;;;;;;;;;;10.17;68.31;99261.22;3944623;30;19926;-59
2024/01/04 04:58:41;;;;;;;;;;;;;;;10.25;67.85;99269.84;3941812;30;19973;-60
2024/01/04 05:00:44;;;;;;;;;;;;;;;10.14;67.40;99264.69;3957548;30;20332;-61
2024/01/04 05:02:46;;;;;;;;;;;;;;;10.08;68.30;99265.56;3939558;30;19925;-61
2024/01/04 05:04:49;;;;;;;;;;;;;;;9.96;68.46;99278.59;3945563;30;20388;-61
2024/01/04 05:06:53;;;;;;;;;;;;;;;9.99;68.21;99285.50;3943446;30;19925;-61
2024/01/04 05:08:55;;;;;;;;;;;;;;;10.02;68.76;99269.94;3942667;30;19926;-62
2024/01/04 05:10:58;;;;;;;;;;;;;;;10.03;68.36;99287.22;3940478;30;19968;-61
2024/01/04 05:13:01;;;;;;;;;;;;;;;10.06;67.89;99290.69;3958130;30;19929;-61
2024/01/04 05:15:04;;;;;;;;;;;;;;;10.03;67.69;99288.09;3943040;30;19929;-61
2024/01/04 05:17:07;;;;;;;;;;;;;;;10.07;68.50;99292.41;3944947;30;19979;-61
2024/01/04 05:19:10;;;;;;;;;;;;;;;10.07;67.54;99292.41;3940649;30;20109;-61
2024/01/04 05:21:13;;;;;;;;;;;;;;;10.07;67.83;99300.19;3945685;30;20335;-61
2024/01/04 05:23:20;;;;;;;;;;;;;;;10.02;67.19;99304.53;3941566;30;19929;-59
2024/01/04 05:25:23;;;;;;;;;;;;;;;10.04;67.47;99302.78;3944796;30;19961;-60
2024/01/04 05:27:26;;;;;;;;;;;;;;;9.95;67.32;99298.47;3947332;24;19925;-64
2024/01/04 05:29:29;;;;;;;;;;;;;;;9.97;67.85;99314.06;3943723;30;19925;-61
2024/01/04 05:31:31;;;;;;;;;;;;;;;9.94;67.50;99306.28;3939888;30;20309;-61
2024/01/04 05:33:33;;;;;;;;;;;;;;;9.97;67.20;99303.66;3943159;30;19926;-61
2024/01/04 05:35:36;;;;;;;;;;;;;;;10.00;67.43;99314.03;3944105;30;19936;-61
2024/01/04 05:37:39;;;;;;;;;;;;;;;10.02;66.84;99320.13;3944807;30;22064;-61
2024/01/04 05:39:43;;;;;;;;;;;;;;;10.05;66.73;99329.66;3946532;30;19930;-62
2024/01/04 05:41:46;;;;;;;;;;;;;;;9.99;66.98;99342.63;3945741;30;19933;-60
2024/01/04 05:43:48;;;;;;;;;;;;;;;10.10;67.53;99331.38;3949057;30;20003;-61
2024/01/04 05:45:50;;;;;;;;;;;;;;;10.08;67.64;99333.09;3937559;30;20415;-61
2024/01/04 05:47:53;;;;;;;;;;;;;;;10.04;67.20;99340.88;3940329;30;19926;-62
2024/01/04 05:49:56;;;;;;;;;;;;;;;10.07;67.46;99340.88;3931915;30;19926;-61
2024/01/04 05:51:59;;;;;;;;;;;;;;;9.98;67.89;99352.16;3941794;30;20008;-61
2024/01/04 05:54:02;;;;;;;;;;;;;;;9.92;67.89;99340.03;3951815;29;19929;-61
2024/01/04 05:56:07;;;;;;;;;;;;;;;9.88;68.07;99351.28;3946456;30;19980;-62
2024/01/04 05:58:09;;;;;;;;;;;;;;;9.89;68.37;99336.59;3945450;30;20346;-61
2024/01/04 06:00:13;;;;;;;;;;;;;;;9.96;68.90;99356.47;3941694;30;19949;-60
2024/01/04 06:02:20;;;;;;;;;;;;;;;9.93;68.71;99369.47;3939298;30;20345;-61
2024/01/04 06:04:23;;;;;;;;;;;;;;;9.87;68.31;99364.25;3937623;30;20363;-60
2024/01/04 06:06:26;;;;;;;;;;;;;;;9.83;69.09;99366.00;3938991;30;20286;-61
2024/01/04 06:08:28;;;;;;;;;;;;;;;9.81;68.72;99378.09;3940473;30;20020;-60
2024/01/04 06:10:31;;;;;;;;;;;;;;;9.76;68.71;99365.13;3945738;30;20029;-61
2024/01/04 06:12:35;;;;;;;;;;;;;;;9.70;69.33;99370.34;3941732;30;19926;-60
2024/01/04 06:14:38;;;;;;;;;;;;;;;9.69;69.38;99376.38;3944101;30;19964;-61
2024/01/04 06:16:41;;;;;;;;;;;;;;;9.76;69.26;99375.50;3940696;30;19925;-62
2024/01/04 06:18:43;;;;;;;;;;;;;;;9.79;69.14;99385.88;3939870;30;20048;-61
2024/01/04 06:20:46;;;;;;;;;;;;;;;9.78;68.73;99388.50;3942325;30;19930;-61
2024/01/04 06:22:50;;;;;;;;;;;;;;;9.89;68.74;99396.28;3936419;30;19999;-61
2024/01/04 06:24:53;;;;;;;;;;;;;;;9.88;68.33;99390.22;3945010;30;19934;-61
2024/01/04 06:26:56;;;;;;;;;;;;;;;9.86;67.79;99393.69;3935611;30;20385;-61
2024/01/04 06:28:59;;;;;;;;;;;;;;;9.79;68.01;99401.47;3933196;30;20297;-61
2024/01/04 06:31:02;;;;;;;;;;;;;;;9.86;67.88;99406.69;3940983;30;20385;-61
2024/01/04 06:33:05;;;;;;;;;;;;;;;9.81;68.08;99395.41;3948807;30;19926;-59
2024/01/04 06:35:08;;;;;;;;;;;;;;;9.83;68.08;99393.69;3960064;29;20464;-56
2024/01/04 06:37:11;;;;;;;;;;;;;;;9.85;68.18;99394.56;3942204;30;20289;-55
2024/01/04 06:39:14;;;;;;;;;;;;;;;9.82;68.07;99410.13;3934270;30;19938;-55
2024/01/04 06:41:19;;;;;;;;;;;;;;;9.76;68.42;99405.81;3942290;30;20451;-56
2024/01/04 06:43:21;;;;;;;;;;;;;;;9.81;68.04;99411.00;3943987;30;19926;-55
2024/01/04 06:45:25;;;;;;;;;;;;;;;9.79;68.11;99417.03;3937052;30;20375;-56
2024/01/04 06:47:27;;;;;;;;;;;;;;;9.75;68.69;99415.34;3939634;30;20025;-59
2024/01/04 06:49:30;;;;;;;;;;;;;;;9.73;68.96;99419.63;3934123;30;19926;-60
2024/01/04 06:51:33;;;;;;;;;;;;;;;9.74;68.22;99421.38;3940384;30;19933;-58
2024/01/04 06:53:36;;;;;;;;;;;;;;;9.77;68.33;99429.16;3940301;30;19936;-59
2024/01/04 06:55:38;;;;;;;;;;;;;;;9.72;68.47;99424.84;3947726;30;19979;-60
2024/01/04 06:57:41;;;;;;;;;;;;;;;9.77;68.73;99438.69;3945810;30;20002;-58
2024/01/04 06:59:43;;;;;;;;;;;;;;;9.74;68.36;99441.28;3943728;30;20028;-59
2024/01/04 07:01:47;;;;;;;;;;;;;;;9.73;68.07;99437.81;3946131;30;20017;-60
2024/01/04 07:03:50;;;;;;;;;;;;;;;9.76;68.22;99443.00;3943439;30;19926;-59
2024/01/04 07:05:53;;;;;;;;;;;;;;;9.72;68.11;99445.59;3954908;30;19933;-60
2024/01/04 07:07:56;;;;;;;;;;;;;;;9.72;68.39;99462.03;3935008;30;19925;-58
2024/01/04 07:09:59;;;;;;;;;;;;;;;9.78;68.13;99455.97;3935144;30;20038;-60
2024/01/04 07:12:02;;;;;;;;;;;;;;;9.82;68.34;99455.13;3948196;30;20417;-60
2024/01/04 07:14:09;;;;;;;;;;;;;;;9.75;67.78;99462.06;3946822;30;19934;-60
2024/01/04 07:16:12;;;;;;;;;;;;;;;9.72;68.30;99469.81;3953774;29;19926;-60
2024/01/04 07:18:16;;;;;;;;;;;;;;;9.68;68.51;99478.47;3952514;29;19964;-60
2024/01/04 07:20:19;;;;;;;;;;;;;;;9.69;68.65;99469.81;3934317;30;19926;-60
2024/01/04 07:22:27;;;;;;;;;;;;;;;9.69;68.27;99467.22;3943355;30;20337;-59
2024/01/04 07:24:30;;;;;;;;;;;;;;;9.65;68.53;99468.09;3947080;30;20044;-60
2024/01/04 07:26:33;;;;;;;;;;;;;;;9.58;68.88;99462.00;3940830;30;19969;-59
2024/01/04 07:28:36;;;;;;;;;;;;;;;9.59;68.85;99473.25;3942016;30;20016;-60
2024/01/04 07:30:39;;;;;;;;;;;;;;;9.69;68.03;99469.81;3934285;30;19926;-60
2024/01/04 07:32:42;;;;;;;;;;;;;;;9.64;68.69;99468.94;3936593;30;19983;-60
2024/01/04 07:34:46;;;;;;;;;;;;;;;9.61;68.78;99482.78;3943360;30;19926;-61
2024/01/04 07:37:01;;;;;;;;;;;;;;;9.58;70.00;99484.50;3943222;30;19937;-60
2024/01/04 07:39:04;;;;;;;;;;;;;;;9.53;70.22;99481.88;3946807;30;20032;-60
2024/01/04 07:41:06;;;;;;;;;;;;;;;9.63;69.81;99487.97;3942934;30;19983;-60
2024/01/04 07:43:08;;;;;;;;;;;;;;;9.64;69.88;99494.91;3939408;30;20242;-60
2024/01/04 07:45:12;;;;;;;;;;;;;;;9.65;69.30;99486.25;3940699;30;19930;-60
2024/01/04 07:47:15;;;;;;;;;;;;;;;9.65;69.29;99491.44;3939325;30;19976;-60
2024/01/04 07:49:18;;;;;;;;;;;;;;;9.61;69.46;99494.91;3939991;30;19926;-61
2024/01/04 07:51:22;;;;;;;;;;;;;;;9.53;69.54;99497.44;3945039;30;20335;-60
2024/01/04 07:53:25;;;;;;;;;;;;;;;9.55;69.93;99505.22;3946939;30;20325;-60
2024/01/04 07:55:28;;;;;;;;;;;;;;;9.54;70.49;99506.13;3942430;30;19959;-60
2024/01/04 07:57:29;;;;;;;;;;;;;;;9.41;70.95;99507.78;3945862;30;19925;-60
2024/01/04 07:59:32;;;;;;;;;;;;;;;9.44;70.85;99506.06;3945714;30;19934;-60
2024/01/04 08:01:35;;;;;;;;;;;;;;;9.36;70.89;99505.19;3959909;30;19982;-57
2024/01/04 08:03:38;;;;;;;;;;;;;;;9.34;70.85;99508.63;3945022;30;19937;-60
2024/01/04 08:05:40;;;;;;;;;;;;;;;9.36;70.85;99520.75;3942961;30;19930;-59
2024/01/04 08:07:45;;;;;;;;;;;;;;;9.43;70.58;99521.63;3931637;30;20633;-60
2024/01/04 08:09:47;;;;;;;;;;;;;;;9.40;70.30;99529.41;3944034;30;20301;-60
2024/01/04 08:11:50;;;;;;;;;;;;;;;9.34;69.96;99532.84;3959432;30;19925;-58
2024/01/04 08:13:53;;;;;;;;;;;;;;;9.35;70.69;99534.56;3937541;30;20345;-60
2024/01/04 08:15:56;;;;;;;;;;;;;;;9.38;69.79;99534.59;3939829;30;19925;-60
2024/01/04 08:17:59;;;;;;;;;;;;;;;9.38;69.77;99534.59;3939130;30;19926;-57
2024/01/04 08:20:04;;;;;;;;;;;;;;;9.38;69.55;99544.97;3946292;30;19926;-59
2024/01/04 08:22:07;;;;;;;;;;;;;;;9.42;69.15;99543.25;3959940;29;19964;-60
2024/01/04 08:24:12;;;;;;;;;;;;;;;9.46;69.59;99551.91;3939797;30;19926;-60
2024/01/04 08:26:17;;;;;;;;;;;;;;;9.52;68.38;99560.59;3942430;30;19926;-60
2024/01/04 08:28:21;;;;;;;;;;;;;;;9.49;67.99;99557.09;3946709;30;19926;-60
2024/01/04 08:30:24;;;;;;;;;;;;;;;9.48;68.54;99563.19;3933825;30;20001;-59
2024/01/04 08:32:27;;;;;;;;;;;;;;;9.50;68.46;99561.44;3943968;30;19966;-59
2024/01/04 08:34:30;;;;;;;;;;;;;;;9.45;68.69;99566.63;3942966;30;20288;-60
2024/01/04 08:36:33;;;;;;;;;;;;;;;9.44;68.53;99572.66;3945536;30;19926;-60
2024/01/04 08:38:36;;;;;;;;;;;;;;;9.54;68.34;99565.78;3937920;30;19929;-59
2024/01/04 08:40:40;;;;;;;;;;;;;;;9.48;68.33;99581.34;3947557;30;19965;-60
2024/01/04 08:42:43;;;;;;;;;;;;;;;9.50;68.52;99587.38;3935102;30;19977;-59
2024/01/04 08:44:45;;;;;;;;;;;;;;;9.58;67.96;99589.16;3944818;30;19981;-59
2024/01/04 08:46:50;;;;;;;;;;;;;;;9.54;67.95;99595.19;3942040;30;19930;-59
2024/01/04 08:48:52;;;;;;;;;;;;;;;9.53;67.34;99600.38;3941327;30;19925;-58
2024/01/04 08:50:55;;;;;;;;;;;;;;;9.43;68.03;99595.16;3938413;30;19934;-59
2024/01/04 08:52:58;;;;;;;;;;;;;;;9.41;68.18;99601.19;3936915;30;19932;-59
2024/01/04 08:55:00;;;;;;;;;;;;;;;9.44;67.71;99611.56;3939112;30;19930;-59
2024/01/04 08:57:06;;;;;;;;;;;;;;;9.35;67.56;99607.19;3937798;30;20258;-60
2024/01/04 08:59:08;;;;;;;;;;;;;;;9.35;67.64;99614.97;3935850;30;19926;-60
2024/01/04 09:01:12;;;;;;;;;;;;;;;9.30;67.96;99613.22;3938714;30;20028;-59
2024/01/04 09:03:14;;;;;;;;;;;;;;;9.33;68.44;99606.34;3942450;30;19933;-60
2024/01/04 09:05:17;;;;;;;;;;;;;;;9.46;67.32;99617.63;3938192;30;20433;-59
2024/01/04 09:07:20;;;;;;;;;;;;;;;9.44;67.13;99625.41;3943173;30;20284;-59
2024/01/04 09:09:23;;;;;;;;;;;;;;;9.52;67.37;99621.97;3942849;30;20016;-58
2024/01/04 09:11:28;;;;;;;;;;;;;;;9.53;67.30;99615.94;3942425;30;19929;-59
2024/01/04 09:13:33;;;;;;;;;;;;;;;9.57;67.46;99613.34;3942719;30;19926;-60
2024/01/04 09:15:35;;;;;;;;;;;;;;;9.60;67.13;99628.94;3943483;30;20408;-60
2024/01/04 09:17:37;;;;;;;;;;;;;;;9.60;67.28;99617.72;3938503;30;19932;-60
2024/01/04 09:19:41;;;;;;;;;;;;;;;9.58;66.49;99620.28;3944042;30;20039;-58
2024/01/04 09:21:45;;;;;;;;;;;;;;;9.57;66.72;99628.06;3937827;30;19930;-58
2024/01/04 09:23:48;;;;;;;;;;;;;;;9.58;66.18;99632.41;3939481;30;19968;-60
2024/01/04 09:25:51;;;;;;;;;;;;;;;9.61;66.24;99632.44;3936474;30;20018;-60
2024/01/04 09:27:54;;;;;;;;;;;;;;;9.56;66.14;99640.19;3942055;30;20381;-59
2024/01/04 09:29:58;;;;;;;;;;;;;;;9.64;65.44;99634.16;3943086;30;19974;-59
2024/01/04 09:32:02;;;;;;;;;;;;;;;9.67;65.54;99631.59;3945558;30;19930;-60
2024/01/04 09:34:04;;;;;;;;;;;;;;;9.64;65.70;99642.81;3957294;29;19926;-60
2024/01/04 09:36:07;;;;;;;;;;;;;;;9.60;66.33;99641.91;3937398;30;19940;-59
2024/01/04 09:38:10;;;;;;;;;;;;;;;9.69;66.27;99635.03;3943897;30;19929;-59
2024/01/04 09:40:13;;;;;;;;;;;;;;;9.68;66.06;99647.16;3954006;29;19933;-60
2024/01/04 09:42:17;;;;;;;;;;;;;;;9.67;66.28;99648.03;3934354;30;19934;-59
2024/01/04 09:44:21;;;;;;;;;;;;;;;9.68;66.39;99646.28;3935493;30;19926;-59
2024/01/04 09:46:26;;;;;;;;;;;;;;;9.65;66.88;99635.88;3936224;30;19932;-59
2024/01/04 09:48:33;;;;;;;;;;;;;;;9.63;66.93;99640.22;3944100;30;19925;-60
2024/01/04 09:50:39;;;;;;;;;;;;;;;9.69;66.91;99641.09;3943452;30;20491;-60
2024/01/04 09:52:44;;;;;;;;;;;;;;;9.72;66.66;99648.88;3944010;30;20540;-60
2024/01/04 09:54:47;;;;;;;;;;;;;;;9.69;66.98;99648.88;3945388;30;19959;-58
2024/01/04 09:56:51;;;;;;;;;;;;;;;9.72;66.33;99645.44;3944038;30;19983;-60
2024/01/04 09:58:54;;;;;;;;;;;;;;;9.63;67.19;99656.66;3944253;30;20345;-58
2024/01/04 10:00:58;;;;;;;;;;;;;;;9.62;67.02;99649.72;3943566;30;19933;-60
2024/01/04 10:03:04;;;;;;;;;;;;;;;9.64;67.06;99648.00;3946647;30;19940;-59
2024/01/04 10:05:06;;;;;;;;;;;;;;;9.65;66.73;99647.16;3941436;30;19938;-59
2024/01/04 10:07:10;;;;;;;;;;;;;;;9.71;67.55;99657.56;3945480;30;19934;-59
2024/01/04 10:09:15;;;;;;;;;;;;;;;9.61;67.11;99654.03;3948063;30;19925;-60
2024/01/04 10:11:21;;;;;;;;;;;;;;;9.58;67.54;99664.41;3945046;30;19926;-60
2024/01/04 10:13:24;;;;;;;;;;;;;;;9.61;67.51;99669.63;3948059;30;19968;-58
2024/01/04 10:15:26;;;;;;;;;;;;;;;9.64;67.51;99663.56;3944538;30;20488;-56
2024/01/04 10:17:29;;;;;;;;;;;;;;;9.58;67.96;99666.16;3946769;30;19991;-55
2024/01/04 10:19:33;;;;;;;;;;;;;;;9.65;68.04;99665.31;3943705;30;21011;-57
2024/01/04 10:21:38;;;;;;;;;;;;;;;9.71;67.98;99667.06;3943072;30;20012;-55
2024/01/04 10:23:41;;;;;;;;;;;;;;;9.81;67.14;99671.41;3939407;30;19937;-55
2024/01/04 10:25:44;;;;;;;;;;;;;;;9.76;66.62;99668.81;3939901;30;19926;-59
2024/01/04 10:27:58;;;;;;;;;;;;;;;9.74;66.68;99686.13;3948263;30;19926;-59
2024/01/04 10:30:02;;;;;;;;;;;;;;;9.79;66.26;99676.63;3943259;30;19930;-60
2024/01/04 10:32:05;;;;;;;;;;;;;;;9.81;65.68;99675.75;3943896;30;20400;-58
2024/01/04 10:34:09;;;;;;;;;;;;;;;9.76;64.95;99676.59;3937795;30;19926;-60
2024/01/04 10:36:13;;;;;;;;;;;;;;;9.78;65.47;99674.00;3951516;30;19975;-58
2024/01/04 10:38:16;;;;;;;;;;;;;;;9.89;64.83;99679.28;3942232;30;19926;-59
2024/01/04 10:40:19;;;;;;;;;;;;;;;9.95;63.70;99687.06;3941200;30;19926;-59
2024/01/04 10:42:22;;;;;;;;;;;;;;;9.88;64.29;99686.16;3943144;30;19976;-59
2024/01/04 10:44:25;;;;;;;;;;;;;;;9.94;64.30;99685.34;3938606;30;19983;-60
2024/01/04 10:46:27;;;;;;;;;;;;;;;10.04;63.30;99687.09;3940016;30;20020;-60